createdAt,value
2022-09-02T00:01:28.324Z,2.42
2022-09-02T00:04:13.847Z,2.60
2022-09-02T00:06:44.982Z,2.65
2022-09-02T00:09:15.582Z,2.83
2022-09-02T00:11:49.550Z,3.07
2022-09-02T00:14:23.231Z,2.53
2022-09-02T00:16:52.965Z,2.65
2022-09-02T00:19:27.683Z,2.42
2022-09-02T00:21:56.766Z,2.33
2022-09-02T00:24:27.156Z,2.40
2022-09-02T00:26:56.767Z,2.45
2022-09-02T00:29:25.878Z,2.30
2022-09-02T00:31:52.999Z,2.53
2022-09-02T00:34:24.768Z,2.08
2022-09-02T00:36:51.825Z,1.98
2022-09-02T00:39:21.446Z,1.92
2022-09-02T00:41:55.708Z,1.95
2022-09-02T00:44:26.099Z,1.80
2022-09-02T00:46:53.071Z,1.88
2022-09-02T00:49:24.979Z,1.90
2022-09-02T00:52:06.039Z,1.88
2022-09-02T00:54:41.946Z,1.85
2022-09-02T00:57:13.701Z,1.63
2022-09-02T00:59:49.194Z,1.80
2022-09-02T01:02:18.616Z,1.80
2022-09-02T01:04:46.668Z,2.10
2022-09-02T01:07:16.180Z,1.80
2022-09-02T01:09:48.271Z,1.70
2022-09-02T01:12:16.165Z,2.00
2022-09-02T01:14:43.119Z,1.80
2022-09-02T01:17:10.576Z,2.00
2022-09-02T01:19:52.175Z,1.67
2022-09-02T01:22:30.122Z,1.80
2022-09-02T01:25:06.964Z,1.95
2022-09-02T01:27:34.095Z,1.70
2022-09-02T01:30:08.209Z,1.90
2022-09-02T01:32:35.232Z,1.80
2022-09-02T01:35:02.289Z,2.00
2022-09-02T01:37:32.258Z,1.90
2022-09-02T01:39:59.714Z,2.00
2022-09-02T01:42:27.032Z,1.80
2022-09-02T01:44:58.831Z,1.80
2022-09-02T01:47:30.007Z,1.92
2022-09-02T01:49:57.207Z,1.73
2022-09-02T01:52:27.435Z,1.80
2022-09-02T01:54:59.375Z,1.70
2022-09-02T01:57:26.843Z,1.60
2022-09-02T01:59:54.858Z,1.67
2022-09-02T02:02:23.345Z,1.80
2022-09-02T02:04:50.746Z,1.52
2022-09-02T02:07:20.269Z,1.75
2022-09-02T02:09:47.970Z,1.95
2022-09-02T02:12:20.875Z,1.80
2022-09-02T02:14:48.189Z,1.63
2022-09-02T02:17:15.284Z,1.65
2022-09-02T02:19:43.776Z,1.50
2022-09-02T02:22:10.865Z,1.42
2022-09-02T02:24:37.888Z,1.85
2022-09-02T02:27:05.227Z,1.70
2022-09-02T02:29:32.608Z,1.80
2022-09-02T02:31:59.614Z,1.65
2022-09-02T02:34:26.684Z,2.03
2022-09-02T02:36:53.608Z,1.58
2022-09-02T02:39:20.825Z,1.60
2022-09-02T02:41:48.067Z,1.67
2022-09-02T02:44:17.257Z,1.70
2022-09-02T02:46:47.039Z,1.58
2022-09-02T02:49:14.194Z,1.90
2022-09-02T02:51:43.426Z,1.65
2022-09-02T02:54:11.227Z,1.40
2022-09-02T02:56:38.134Z,1.42
2022-09-02T02:59:05.074Z,1.60
2022-09-02T03:01:32.850Z,1.38
2022-09-02T03:04:00.221Z,1.60
2022-09-02T03:06:29.917Z,1.58
2022-09-02T03:08:57.604Z,1.75
2022-09-02T03:11:28.397Z,1.77
2022-09-02T03:13:59.318Z,1.55
2022-09-02T03:16:26.544Z,1.60
2022-09-02T03:18:53.506Z,1.52
2022-09-02T03:21:20.762Z,1.60
2022-09-02T03:23:47.984Z,1.70
2022-09-02T03:26:25.058Z,1.50
2022-09-02T03:28:57.234Z,1.80
2022-09-02T03:31:26.476Z,1.65
2022-09-02T03:33:53.987Z,1.70
2022-09-02T03:36:38.949Z,1.83
2022-09-02T03:39:11.133Z,1.40
2022-09-02T03:41:41.178Z,1.40
2022-09-02T03:44:11.576Z,1.45
2022-09-02T03:46:38.491Z,1.73
2022-09-02T03:49:05.639Z,1.60
2022-09-02T03:51:37.420Z,1.20
2022-09-02T03:54:04.468Z,1.55
2022-09-02T03:56:31.419Z,1.70
2022-09-02T03:59:01.296Z,1.60
2022-09-02T04:01:34.564Z,1.20
2022-09-02T04:04:04.389Z,1.70
2022-09-02T04:06:32.661Z,1.77
2022-09-02T04:09:02.845Z,1.80
2022-09-02T04:11:30.147Z,1.80
2022-09-02T04:14:04.252Z,1.92
2022-09-02T04:17:46.665Z,1.63
2022-09-02T04:23:15.146Z,1.67
2022-09-02T04:25:44.218Z,1.90
2022-09-02T04:28:11.227Z,1.55
2022-09-02T04:30:43.152Z,1.60
2022-09-02T04:33:13.733Z,1.65
2022-09-02T04:35:43.454Z,1.40
2022-09-02T04:38:11.826Z,1.88
2022-09-02T04:40:45.869Z,1.40
2022-09-02T04:43:18.333Z,1.58
2022-09-02T04:45:51.588Z,1.52
2022-09-02T04:48:23.904Z,1.85
2022-09-02T04:50:50.793Z,2.00
2022-09-02T04:53:17.853Z,2.00
2022-09-02T04:55:46.825Z,1.77
2022-09-02T04:58:16.707Z,2.20
2022-09-02T05:00:43.601Z,1.50
2022-09-02T05:03:12.098Z,1.92
2022-09-02T05:05:39.439Z,1.95
2022-09-02T05:08:06.576Z,2.10
2022-09-02T05:10:33.673Z,2.20
2022-09-02T05:13:01.164Z,1.80
2022-09-02T05:15:28.762Z,2.00
2022-09-02T05:17:55.743Z,1.63
2022-09-02T05:20:24.028Z,1.63
2022-09-02T05:22:51.207Z,1.60
2022-09-02T05:25:23.020Z,1.63
2022-09-02T05:27:50.383Z,1.60
2022-09-02T05:30:17.398Z,1.70
2022-09-02T05:32:44.287Z,1.60
2022-09-02T05:35:11.272Z,1.60
2022-09-02T05:37:40.545Z,1.67
2022-09-02T05:40:08.877Z,1.42
2022-09-02T05:42:37.770Z,1.60
2022-09-02T05:45:09.036Z,1.35
2022-09-02T05:47:36.371Z,1.60
2022-09-02T05:50:04.278Z,1.48
2022-09-02T05:52:34.799Z,1.48
2022-09-02T05:55:03.866Z,1.50
2022-09-02T05:57:30.831Z,1.52
2022-09-02T06:00:00.748Z,1.33
2022-09-02T06:02:30.206Z,1.75
2022-09-02T06:05:04.078Z,1.50
2022-09-02T06:07:31.038Z,1.95
2022-09-02T06:10:03.612Z,1.52
2022-09-02T06:12:33.135Z,2.20
2022-09-02T06:15:00.160Z,2.03
2022-09-02T06:17:27.400Z,2.05
2022-09-02T06:19:55.320Z,2.15
2022-09-02T06:22:30.410Z,1.77
2022-09-02T06:24:57.337Z,1.90
2022-09-02T06:27:24.335Z,1.90
2022-09-02T06:29:51.371Z,1.65
2022-09-02T06:32:18.328Z,1.75
2022-09-02T06:34:45.238Z,2.03
2022-09-02T06:37:12.204Z,1.92
2022-09-02T06:39:44.015Z,2.33
2022-09-02T06:42:10.959Z,1.80
2022-09-02T06:44:38.101Z,1.85
2022-09-02T06:47:05.226Z,2.22
2022-09-02T06:49:35.241Z,1.88
2022-09-02T06:52:05.546Z,1.98
2022-09-02T06:54:34.764Z,2.00
2022-09-02T06:57:01.715Z,2.13
2022-09-02T06:59:30.760Z,1.95
2022-09-02T07:01:58.156Z,2.03
2022-09-02T07:04:43.680Z,2.03
2022-09-02T07:07:15.641Z,2.17
2022-09-02T07:09:42.609Z,2.10
2022-09-02T07:12:15.330Z,1.48
2022-09-02T07:14:43.897Z,1.80
2022-09-02T07:17:21.911Z,1.92
2022-09-02T07:19:50.137Z,1.92
2022-09-02T07:22:20.351Z,1.98
2022-09-02T07:24:47.350Z,2.00
2022-09-02T07:27:15.126Z,1.85
2022-09-02T07:29:44.209Z,1.98
2022-09-02T07:32:11.270Z,1.63
2022-09-02T07:34:38.206Z,1.75
2022-09-02T07:37:10.849Z,1.80
2022-09-02T07:39:40.410Z,1.77
2022-09-02T07:42:11.662Z,1.30
2022-09-02T07:44:38.658Z,1.85
2022-09-02T07:47:08.719Z,1.55
2022-09-02T07:52:25.017Z,1.65
2022-09-02T07:54:52.169Z,1.45
2022-09-02T07:57:23.744Z,1.50
2022-09-02T07:59:50.917Z,1.60
2022-09-02T08:02:18.795Z,1.40
2022-09-02T08:04:51.228Z,1.27
2022-09-02T08:07:24.234Z,1.65
2022-09-02T08:09:52.856Z,1.27
2022-09-02T08:12:21.711Z,1.38
2022-09-02T08:14:49.658Z,1.40
2022-09-02T08:17:21.372Z,1.25
2022-09-02T08:19:50.962Z,1.30
2022-09-02T08:22:23.427Z,1.50
2022-09-02T08:24:50.352Z,1.25
2022-09-02T08:27:17.262Z,1.40
2022-09-02T08:29:46.662Z,1.23
2022-09-02T08:32:13.853Z,1.17
2022-09-02T08:34:40.828Z,0.90
2022-09-02T08:37:08.168Z,1.20
2022-09-02T08:39:35.107Z,1.23
2022-09-02T08:42:35.412Z,1.25
2022-09-02T08:45:42.572Z,1.13
2022-09-02T08:48:50.051Z,1.02
2022-09-02T08:51:52.811Z,1.20
2022-09-02T08:54:34.530Z,1.10
2022-09-02T08:57:01.491Z,0.98
2022-09-02T08:59:31.580Z,1.00
2022-09-02T09:02:08.157Z,1.20
2022-09-02T09:04:53.866Z,1.23
2022-09-02T09:07:48.697Z,1.15
2022-09-02T09:10:33.026Z,1.00
2022-09-02T09:13:17.585Z,1.00
2022-09-02T09:15:51.302Z,1.10
2022-09-02T09:18:43.381Z,1.10
2022-09-02T09:21:13.698Z,0.90
2022-09-02T09:23:43.107Z,1.13
2022-09-02T09:26:19.065Z,1.10
2022-09-02T09:28:50.469Z,0.90
2022-09-02T09:31:31.069Z,0.85
2022-09-02T09:34:12.863Z,1.10
2022-09-02T09:36:39.800Z,1.05
2022-09-02T09:39:30.326Z,1.50
2022-09-02T09:41:58.311Z,1.30
2022-09-02T09:44:48.230Z,1.08
2022-09-02T09:47:21.117Z,0.95
2022-09-02T09:49:52.143Z,1.15
2022-09-02T09:52:30.819Z,1.05
2022-09-02T09:55:24.586Z,1.25
2022-09-02T09:57:55.974Z,1.10
2022-09-02T10:00:31.981Z,1.00
2022-09-02T10:03:05.902Z,1.25
2022-09-02T10:05:40.350Z,1.42
2022-09-02T10:08:26.061Z,1.10
2022-09-02T10:11:03.605Z,1.10
2022-09-02T10:13:37.153Z,1.00
2022-09-02T10:16:48.780Z,1.20
2022-09-02T10:19:53.787Z,1.08
2022-09-02T10:23:02.621Z,1.00
2022-09-02T10:25:53.534Z,1.13
2022-09-02T10:29:04.287Z,1.20
2022-09-02T10:31:52.070Z,1.20
2022-09-02T10:35:19.382Z,1.20
2022-09-02T10:38:05.413Z,1.00
2022-09-02T10:41:16.531Z,1.25
2022-09-02T10:43:57.337Z,1.20
2022-09-02T10:46:28.019Z,1.33
2022-09-02T10:49:10.690Z,1.10
2022-09-02T10:52:07.455Z,1.20
2022-09-02T10:55:06.617Z,1.15
2022-09-02T10:57:42.952Z,1.10
2022-09-02T11:00:16.193Z,1.20
2022-09-02T11:03:27.613Z,0.95
2022-09-02T11:06:05.713Z,1.15
2022-09-02T11:08:52.322Z,1.35
2022-09-02T11:11:37.334Z,1.10
2022-09-02T11:14:30.382Z,1.50
2022-09-02T11:17:13.379Z,1.23
2022-09-02T11:20:18.402Z,1.23
2022-09-02T11:23:13.592Z,1.33
2022-09-02T11:25:49.567Z,1.27
2022-09-02T11:28:38.837Z,1.05
2022-09-02T11:31:39.440Z,1.40
2022-09-02T11:34:21.368Z,1.20
2022-09-02T11:36:49.625Z,1.20
2022-09-02T11:39:54.389Z,1.30
2022-09-02T11:43:08.064Z,1.25
2022-09-02T11:45:57.570Z,1.60
2022-09-02T11:48:50.735Z,1.23
2022-09-02T11:52:01.327Z,1.15
2022-09-02T11:54:41.612Z,1.20
2022-09-02T11:57:16.666Z,1.40
2022-09-02T11:59:55.329Z,1.58
2022-09-02T12:02:43.333Z,1.50
2022-09-02T12:05:34.329Z,1.27
2022-09-02T12:08:34.958Z,1.17
2022-09-02T12:11:09.090Z,1.52
2022-09-02T12:16:36.648Z,1.20
2022-09-02T12:19:08.424Z,1.13
2022-09-02T12:21:38.867Z,1.02
2022-09-02T12:24:09.953Z,1.13
2022-09-02T12:26:39.123Z,1.30
2022-09-02T12:29:31.393Z,1.10
2022-09-02T12:32:01.341Z,1.25
2022-09-02T12:34:30.742Z,1.17
2022-09-02T12:36:58.958Z,1.08
2022-09-02T12:39:27.407Z,0.90
2022-09-02T12:42:10.117Z,1.10
2022-09-02T12:45:26.826Z,1.02
2022-09-02T12:48:24.957Z,1.10
2022-09-02T12:51:04.896Z,1.35
2022-09-02T12:53:42.766Z,1.30
2022-09-02T12:56:15.604Z,1.30
2022-09-02T12:58:49.123Z,1.67
2022-09-02T13:01:34.930Z,1.20
2022-09-02T13:04:26.302Z,1.40
2022-09-02T13:10:17.296Z,1.10
2022-09-02T13:13:02.397Z,1.40
2022-09-02T13:16:06.588Z,1.00
2022-09-02T13:18:48.656Z,1.10
2022-09-02T13:21:47.052Z,1.40
2022-09-02T13:25:10.479Z,1.25
2022-09-02T13:28:20.485Z,1.30
2022-09-02T13:31:28.637Z,1.33
2022-09-02T13:34:05.810Z,1.23
2022-09-02T13:36:52.977Z,1.17
2022-09-02T13:39:25.181Z,1.20
2022-09-02T13:41:55.017Z,1.50
2022-09-02T13:44:29.508Z,1.10
2022-09-02T13:47:20.723Z,1.50
2022-09-02T13:53:19.688Z,1.20
2022-09-02T13:55:15.925Z,1.10
2022-09-02T13:57:53.090Z,1.33
2022-09-02T14:00:38.679Z,1.30
2022-09-02T14:03:15.259Z,1.20
2022-09-02T14:05:47.796Z,1.40
2022-09-02T14:08:22.825Z,1.20
2022-09-02T14:10:53.962Z,1.13
2022-09-02T14:15:49.598Z,1.15
2022-09-02T14:18:19.461Z,1.13
2022-09-02T14:21:17.401Z,1.10
2022-09-02T14:23:54.298Z,1.38
2022-09-02T14:26:43.527Z,1.30
2022-09-02T14:29:20.282Z,1.77
2022-09-02T14:32:06.724Z,1.48
2022-09-02T14:34:40.787Z,1.63
2022-09-02T14:37:30.987Z,1.30
2022-09-02T14:40:12.036Z,1.30
2022-09-02T14:42:48.506Z,1.42
2022-09-02T14:45:26.262Z,1.23
2022-09-02T14:47:53.674Z,1.40
2022-09-02T14:50:27.667Z,1.40
2022-09-02T14:53:06.974Z,1.63
2022-09-02T14:55:58.270Z,1.20
2022-09-02T14:58:27.970Z,1.42
2022-09-02T15:01:00.445Z,1.42
2022-09-02T15:03:30.048Z,1.42
2022-09-02T15:05:57.806Z,1.38
2022-09-02T15:08:30.250Z,1.40
2022-09-02T15:11:01.135Z,1.40
2022-09-02T15:13:34.789Z,1.50
2022-09-02T15:16:03.461Z,1.48
2022-09-02T15:18:30.773Z,1.40
2022-09-02T15:20:57.876Z,1.73
2022-09-02T15:23:25.293Z,1.38
2022-09-02T15:25:54.779Z,1.40
2022-09-02T15:28:21.772Z,1.67
2022-09-02T15:30:48.795Z,1.40
2022-09-02T15:33:17.466Z,1.55
2022-09-02T15:35:47.338Z,1.45
2022-09-02T15:38:14.439Z,1.38
2022-09-02T15:40:46.927Z,1.85
2022-09-02T15:43:14.043Z,1.40
2022-09-02T15:45:48.454Z,2.22
2022-09-02T15:48:18.125Z,1.55
2022-09-02T15:50:46.470Z,1.40
2022-09-02T15:53:15.516Z,1.50
2022-09-02T15:55:42.451Z,1.67
2022-09-02T15:58:10.161Z,1.52
2022-09-02T16:00:37.682Z,1.42
2022-09-02T16:03:07.711Z,1.83
2022-09-02T16:05:34.704Z,1.80
2022-09-02T16:08:04.463Z,1.50
2022-09-02T16:10:31.543Z,1.52
2022-09-02T16:13:00.698Z,2.20
2022-09-02T16:15:28.601Z,1.60
2022-09-02T16:17:56.652Z,1.70
2022-09-02T16:20:25.758Z,1.45
2022-09-02T16:22:53.249Z,1.45
2022-09-02T16:25:23.141Z,1.63
2022-09-02T16:27:52.815Z,1.70
2022-09-02T16:30:19.984Z,1.83
2022-09-02T16:32:47.791Z,1.67
2022-09-02T16:35:14.731Z,1.40
2022-09-02T16:37:44.867Z,1.70
2022-09-02T16:40:21.190Z,1.90
2022-09-02T16:42:50.783Z,1.88
2022-09-02T16:45:18.038Z,1.95
2022-09-02T16:47:47.463Z,2.00
2022-09-02T16:50:14.565Z,2.22
2022-09-02T16:52:41.582Z,2.20
2022-09-02T16:55:08.731Z,1.92
2022-09-02T16:57:37.920Z,1.77
2022-09-02T17:00:05.883Z,1.60
2022-09-02T17:02:32.857Z,1.52
2022-09-02T17:04:59.924Z,1.98
2022-09-02T17:07:29.928Z,1.70
2022-09-02T17:09:59.130Z,2.08
2022-09-02T17:12:26.079Z,2.10
2022-09-02T17:14:55.036Z,1.98
2022-09-02T17:17:21.957Z,2.33
2022-09-02T17:19:48.890Z,2.45
2022-09-02T17:22:17.917Z,2.78
2022-09-02T17:24:44.821Z,1.92
2022-09-02T17:27:13.806Z,1.92
2022-09-02T17:29:49.636Z,1.90
2022-09-02T17:32:18.675Z,2.08
2022-09-02T17:34:45.757Z,2.78
2022-09-02T17:37:15.347Z,1.88
2022-09-02T17:39:42.329Z,1.88
2022-09-02T17:42:09.339Z,2.10
2022-09-02T17:44:39.405Z,1.67
2022-09-02T17:47:16.444Z,1.83
2022-09-02T17:49:47.437Z,1.88
2022-09-02T17:52:22.051Z,1.75
2022-09-02T17:54:52.411Z,2.55
2022-09-02T17:57:51.994Z,2.17
2022-09-02T18:00:22.402Z,1.90
2022-09-02T18:03:20.268Z,2.10
2022-09-02T18:06:10.948Z,2.30
2022-09-02T18:08:57.940Z,2.00
2022-09-02T18:11:25.656Z,2.17
2022-09-02T18:14:34.958Z,2.35
2022-09-02T18:17:29.680Z,1.83
2022-09-02T18:20:04.277Z,1.90
2022-09-02T18:23:10.488Z,2.17
2022-09-02T18:25:49.337Z,2.03
2022-09-02T18:28:26.195Z,1.92
2022-09-02T18:31:14.331Z,2.00
2022-09-02T18:33:54.373Z,1.90
2022-09-02T18:36:41.570Z,2.08
2022-09-02T18:39:36.745Z,2.05
2022-09-02T18:42:45.514Z,1.83
2022-09-02T18:45:25.663Z,1.80
2022-09-02T18:48:01.462Z,2.35
2022-09-02T18:50:49.920Z,2.47
2022-09-02T18:53:28.320Z,2.00
2022-09-02T18:55:59.307Z,2.22
2022-09-02T18:58:41.170Z,1.88
2022-09-02T19:01:23.931Z,2.25
2022-09-02T19:03:51.675Z,2.10
2022-09-02T19:06:22.907Z,2.40
2022-09-02T19:08:59.023Z,2.17
2022-09-02T19:11:27.268Z,2.10
2022-09-02T19:13:57.548Z,1.90
2022-09-02T19:16:36.307Z,2.08
2022-09-02T19:19:06.287Z,1.80
2022-09-02T19:21:46.052Z,2.03
2022-09-02T19:24:25.529Z,2.15
2022-09-02T19:27:01.192Z,2.00
2022-09-02T19:29:28.400Z,2.30
2022-09-02T19:32:00.052Z,2.00
2022-09-02T19:34:35.022Z,1.55
2022-09-02T19:37:04.786Z,1.77
2022-09-02T19:39:38.033Z,1.80
2022-09-02T19:42:10.191Z,1.90
2022-09-02T19:44:37.094Z,1.70
2022-09-02T19:47:49.893Z,1.60
2022-09-02T19:49:53.463Z,1.50
2022-09-02T19:52:25.203Z,1.58
2022-09-02T19:54:55.194Z,1.75
2022-09-02T19:57:22.133Z,2.08
2022-09-02T19:59:51.950Z,1.60
2022-09-02T20:02:19.073Z,1.50
2022-09-02T20:04:49.607Z,1.40
2022-09-02T20:07:16.578Z,1.70
2022-09-02T20:09:45.989Z,1.65
2022-09-02T20:12:16.819Z,1.67
2022-09-02T20:14:45.706Z,1.75
2022-09-02T20:17:29.001Z,1.80
2022-09-02T20:20:01.019Z,2.05
2022-09-02T20:22:35.192Z,2.13
2022-09-02T20:25:02.137Z,2.25
2022-09-02T20:27:47.999Z,1.80
2022-09-02T20:30:17.812Z,1.95
2022-09-02T20:32:57.614Z,2.17
2022-09-02T20:35:49.309Z,2.22
2022-09-02T20:41:28.495Z,1.70
2022-09-02T20:44:26.749Z,1.60
2022-09-02T20:47:20.069Z,1.58
2022-09-02T20:50:21.372Z,2.22
2022-09-02T20:53:11.915Z,1.90
2022-09-02T20:56:41.586Z,1.67
2022-09-02T20:59:16.069Z,1.42
2022-09-02T21:01:45.483Z,1.58
2022-09-02T21:04:33.558Z,1.70
2022-09-02T21:07:32.646Z,1.90
2022-09-02T21:10:09.752Z,1.80
2022-09-02T21:12:43.062Z,1.60
2022-09-02T21:15:39.243Z,1.73
2022-09-02T21:18:38.385Z,2.10
2022-09-02T21:21:29.144Z,1.88
2022-09-02T21:24:28.404Z,3.22
2022-09-02T21:27:06.743Z,1.80
2022-09-02T21:30:02.365Z,1.80
2022-09-02T21:32:59.721Z,1.88
2022-09-02T21:35:51.230Z,1.73
2022-09-02T21:38:29.956Z,1.80
2022-09-02T21:41:15.518Z,1.50
2022-09-02T21:44:21.766Z,1.60
2022-09-02T21:47:21.188Z,1.90
2022-09-02T21:49:58.675Z,2.00
2022-09-02T21:52:48.403Z,1.95
2022-09-02T21:55:29.443Z,2.00
2022-09-02T21:58:35.166Z,1.75
2022-09-02T22:01:44.610Z,2.03
2022-09-02T22:04:51.997Z,1.80
2022-09-02T22:07:40.140Z,1.60
2022-09-02T22:10:39.122Z,1.70
2022-09-02T22:13:08.599Z,1.70
2022-09-02T22:15:57.969Z,1.73
2022-09-02T22:18:39.422Z,1.67
2022-09-02T22:21:19.714Z,2.17
2022-09-02T22:23:46.914Z,2.08
2022-09-02T22:26:35.642Z,1.67
2022-09-02T22:29:27.368Z,1.92
2022-09-02T22:34:27.403Z,1.80
2022-09-02T22:36:58.568Z,1.80
2022-09-02T22:39:37.582Z,1.50
2022-09-02T22:42:24.414Z,1.70
2022-09-02T22:45:30.875Z,1.63
2022-09-02T22:48:44.523Z,2.70
2022-09-02T22:51:37.593Z,2.00
2022-09-02T22:54:07.637Z,2.08
2022-09-02T22:56:55.903Z,2.47
2022-09-02T22:59:39.891Z,2.08
2022-09-02T23:02:27.405Z,1.85
2022-09-02T23:05:45.231Z,2.08
2022-09-02T23:08:20.429Z,1.90
2022-09-02T23:11:06.756Z,2.40
2022-09-02T23:14:14.390Z,2.53
2022-09-02T23:17:06.780Z,2.20
2022-09-02T23:20:02.359Z,2.33
2022-09-02T23:22:46.990Z,2.00
2022-09-02T23:25:24.380Z,2.00
2022-09-02T23:28:20.814Z,1.85
2022-09-02T23:31:44.572Z,1.60
2022-09-02T23:34:48.599Z,1.77
2022-09-02T23:37:52.343Z,1.83
2022-09-02T23:40:31.614Z,1.60
2022-09-02T23:43:03.338Z,2.20
2022-09-02T23:45:33.746Z,2.28
2022-09-02T23:48:19.545Z,2.00
2022-09-02T23:50:57.711Z,2.50
2022-09-02T23:53:30.752Z,2.20
2022-09-02T23:56:44.068Z,2.20
2022-09-02T23:59:54.014Z,2.30
